Time;durP1;ratioP1;P1;durP2;ratioP2;P2;SDS_P1;SDS_P2;PMS_P1;PMS_P2;Temp;Humidity;BMP_temperature;BMP_pressure;BME280_temperature;BME280_humidity;BME280_pressure;Samples;Min_cycle;Max_cycle;Signal;HPM_P1;HPM_P2
2021/05/26 00:01:53;;;;;;;0.40;0.20;;;;;;;;;;5033453;28;20187;-6
2021/05/26 00:04:19;;;;;;;0.13;0.13;;;;;;;;;;5033200;28;20036;-5
2021/05/26 00:06:44;;;;;;;0.20;0.10;;;;;;;;;;5033368;28;20030;-5
2021/05/26 00:09:09;;;;;;;0.30;0.25;;;;;;;;;;5032920;28;20464;-5
2021/05/26 00:11:35;;;;;;;0.20;0.20;;;;;;;;;;5033322;28;20040;-7
2021/05/26 00:14:00;;;;;;;0.20;0.20;;;;;;;;;;5032929;28;20017;-6
2021/05/26 00:16:26;;;;;;;0.15;0.13;;;;;;;;;;5032934;28;20053;-6
2021/05/26 00:18:52;;;;;;;0.20;0.20;;;;;;;;;;5033069;28;20014;-6
2021/05/26 00:21:18;;;;;;;0.20;0.20;;;;;;;;;;5032723;28;20135;-6
2021/05/26 00:23:43;;;;;;;0.20;0.20;;;;;;;;;;5033062;28;20021;-6
2021/05/26 00:26:08;;;;;;;0.32;0.30;;;;;;;;;;5033055;28;20387;-5
2021/05/26 00:28:34;;;;;;;0.35;0.35;;;;;;;;;;5032699;28;20018;-6
2021/05/26 00:31:00;;;;;;;0.10;0.10;;;;;;;;;;5032906;28;20045;-6
2021/05/26 00:33:26;;;;;;;0.20;0.20;;;;;;;;;;5031312;28;20028;-5
2021/05/26 00:35:52;;;;;;;0.93;0.28;;;;;;;;;;5032414;28;20029;-6
2021/05/26 00:38:17;;;;;;;0.38;0.30;;;;;;;;;;5031127;28;20030;-7
2021/05/26 00:40:44;;;;;;;0.20;0.20;;;;;;;;;;5032764;28;20049;-6
2021/05/26 00:43:09;;;;;;;0.32;0.20;;;;;;;;;;5032481;28;20096;-7
2021/05/26 00:45:35;;;;;;;0.55;0.20;;;;;;;;;;5032751;28;20067;-5
2021/05/26 00:48:01;;;;;;;0.85;0.52;;;;;;;;;;5032326;28;20041;-6
2021/05/26 00:50:28;;;;;;;0.22;0.20;;;;;;;;;;5031229;28;20088;-6
2021/05/26 00:52:56;;;;;;;0.13;0.10;;;;;;;;;;5032558;28;20021;-5
2021/05/26 00:55:22;;;;;;;0.50;0.20;;;;;;;;;;5032171;28;20085;-5
2021/05/26 00:57:49;;;;;;;0.55;0.30;;;;;;;;;;5032291;28;20056;-6
2021/05/26 01:00:19;;;;;;;0.47;0.20;;;;;;;;;;5030953;28;20412;-6
2021/05/26 01:02:45;;;;;;;0.25;0.20;;;;;;;;;;5032583;28;20397;-5
2021/05/26 01:05:12;;;;;;;2.28;0.20;;;;;;;;;;5032251;28;20156;-5
2021/05/26 01:07:40;;;;;;;0.10;0.10;;;;;;;;;;5030930;28;20021;-5
2021/05/26 01:10:09;;;;;;;1.48;0.30;;;;;;;;;;5032184;28;20029;-6
2021/05/26 01:12:49;;;;;;;0.28;0.28;;;;;;;;;;5032664;28;20112;-6
2021/05/26 01:15:15;;;;;;;0.30;0.20;;;;;;;;;;5032265;28;20034;-5
2021/05/26 01:17:41;;;;;;;0.57;0.50;;;;;;;;;;5032034;28;20500;-6
2021/05/26 01:20:08;;;;;;;0.20;0.20;;;;;;;;;;5030784;28;20044;-5
2021/05/26 01:22:34;;;;;;;0.10;0.10;;;;;;;;;;5032133;28;20044;-5
2021/05/26 01:25:00;;;;;;;0.30;0.25;;;;;;;;;;5030610;28;20025;-6
2021/05/26 01:27:26;;;;;;;0.30;0.28;;;;;;;;;;5032177;28;20021;-5
2021/05/26 01:29:57;;;;;;;2.40;1.05;;;;;;;;;;5030724;28;20060;-5
2021/05/26 01:32:23;;;;;;;1.77;0.40;;;;;;;;;;5030742;28;20048;-5
2021/05/26 01:34:48;;;;;;;0.28;0.28;;;;;;;;;;5032028;28;20014;-6
2021/05/26 01:37:14;;;;;;;0.32;0.30;;;;;;;;;;5030670;28;20022;-5
2021/05/26 01:39:39;;;;;;;0.68;0.35;;;;;;;;;;5064185;28;20477;-5
2021/05/26 01:42:05;;;;;;;0.28;0.20;;;;;;;;;;5032021;28;20026;-5
2021/05/26 01:44:34;;;;;;;0.20;0.20;;;;;;;;;;5014300;28;20021;-6
2021/05/26 01:47:11;;;;;;;0.20;0.20;;;;;;;;;;5030054;28;20132;-6
2021/05/26 01:49:38;;;;;;;0.20;0.20;;;;;;;;;;5033110;28;20029;-5
2021/05/26 01:52:03;;;;;;;1.55;0.20;;;;;;;;;;5035834;28;20036;-6
2021/05/26 01:54:29;;;;;;;0.73;0.73;;;;;;;;;;5034175;28;20637;-4
2021/05/26 01:56:56;;;;;;;0.32;0.22;;;;;;;;;;5034427;28;20026;-6
2021/05/26 01:59:24;;;;;;;0.40;0.32;;;;;;;;;;5035363;28;20105;-5
2021/05/26 02:01:51;;;;;;;0.20;0.20;;;;;;;;;;5035832;28;20099;-7
2021/05/26 02:04:19;;;;;;;0.35;0.35;;;;;;;;;;5035730;28;20076;-6
2021/05/26 02:06:51;;;;;;;0.35;0.20;;;;;;;;;;5035363;28;20014;-5
2021/05/26 02:09:16;;;;;;;2.10;0.20;;;;;;;;;;5034015;28;20056;-6
2021/05/26 02:12:32;;;;;;;0.20;0.20;;;;;;;;;;5034010;28;20392;-6
2021/05/26 02:14:28;;;;;;;0.30;0.30;;;;;;;;;;5030253;28;20076;-6
2021/05/26 02:16:57;;;;;;;1.08;0.40;;;;;;;;;;5035375;28;20056;-6
2021/05/26 02:19:22;;;;;;;0.17;0.17;;;;;;;;;;5035048;28;20065;-7
2021/05/26 02:21:48;;;;;;;1.15;0.20;;;;;;;;;;5035304;28;20025;-6
2021/05/26 02:24:13;;;;;;;0.10;0.10;;;;;;;;;;5035033;28;20350;-6
2021/05/26 02:26:39;;;;;;;0.20;0.20;;;;;;;;;;5035021;28;20025;-5
2021/05/26 02:29:06;;;;;;;0.38;0.30;;;;;;;;;;5033558;28;20061;-7
2021/05/26 02:31:35;;;;;;;1.63;0.30;;;;;;;;;;5033744;28;20025;-7
2021/05/26 02:34:01;;;;;;;0.77;0.17;;;;;;;;;;5033535;28;20029;-6
2021/05/26 02:36:26;;;;;;;0.88;0.22;;;;;;;;;;5033509;28;20095;-5
2021/05/26 02:38:52;;;;;;;0.75;0.40;;;;;;;;;;5033356;28;20030;-7
2021/05/26 02:41:17;;;;;;;0.20;0.20;;;;;;;;;;5034746;28;20033;-5
2021/05/26 02:43:43;;;;;;;0.30;0.30;;;;;;;;;;5033380;28;20032;-7
2021/05/26 02:46:09;;;;;;;0.63;0.40;;;;;;;;;;5033201;28;20018;-7
2021/05/26 02:48:34;;;;;;;0.35;0.30;;;;;;;;;;5034610;28;20036;-6
2021/05/26 02:51:00;;;;;;;0.32;0.32;;;;;;;;;;5033060;28;20049;-5
2021/05/26 02:53:28;;;;;;;0.40;0.30;;;;;;;;;;5033310;28;20037;-6
2021/05/26 02:55:54;;;;;;;5.35;0.30;;;;;;;;;;5034282;28;20147;-5
2021/05/26 02:58:34;;;;;;;0.70;0.60;;;;;;;;;;5034757;28;20029;-6
2021/05/26 03:01:18;;;;;;;0.38;0.35;;;;;;;;;;5034052;28;20049;-5
2021/05/26 03:03:55;;;;;;;0.30;0.22;;;;;;;;;;5032941;28;20029;-5
2021/05/26 03:06:26;;;;;;;0.20;0.20;;;;;;;;;;5032979;28;20053;-5
2021/05/26 03:08:52;;;;;;;0.63;0.35;;;;;;;;;;5034419;28;20460;-6
2021/05/26 03:11:22;;;;;;;1.58;0.28;;;;;;;;;;5033067;28;20021;-7
2021/05/26 03:14:00;;;;;;;0.20;0.20;;;;;;;;;;5032833;28;20028;-6
2021/05/26 03:16:28;;;;;;;0.45;0.45;;;;;;;;;;5032813;28;20536;-7
2021/05/26 03:18:54;;;;;;;1.40;0.50;;;;;;;;;;5032611;28;20116;-7
2021/05/26 03:21:19;;;;;;;0.10;0.10;;;;;;;;;;5034131;28;20037;-6
2021/05/26 03:24:08;;;;;;;0.40;0.30;;;;;;;;;;5033658;28;20376;-6
2021/05/26 03:26:38;;;;;;;0.32;0.20;;;;;;;;;;5034159;28;20063;-6
2021/05/26 03:29:04;;;;;;;1.13;0.30;;;;;;;;;;5033806;28;20025;-6
2021/05/26 03:31:30;;;;;;;0.60;0.45;;;;;;;;;;5034046;28;20021;-6
2021/05/26 03:33:55;;;;;;;1.55;0.32;;;;;;;;;;5033605;28;20018;-6
2021/05/26 03:36:21;;;;;;;0.30;0.30;;;;;;;;;;5033707;28;20025;-5
2021/05/26 03:38:47;;;;;;;1.00;0.20;;;;;;;;;;5033892;28;20041;-7
2021/05/26 03:41:16;;;;;;;0.28;0.20;;;;;;;;;;5032276;28;20040;-7
2021/05/26 03:43:41;;;;;;;0.52;0.52;;;;;;;;;;5033863;28;20029;-6
2021/05/26 03:46:07;;;;;;;1.38;0.45;;;;;;;;;;5031992;28;20491;-5
2021/05/26 03:48:35;;;;;;;0.40;0.30;;;;;;;;;;5033761;28;20041;-6
2021/05/26 03:51:01;;;;;;;0.20;0.20;;;;;;;;;;5033640;28;20159;-6
2021/05/26 03:53:27;;;;;;;1.38;0.40;;;;;;;;;;5033707;28;20032;-5
2021/05/26 03:55:52;;;;;;;0.60;0.10;;;;;;;;;;5031755;28;20136;-5
2021/05/26 03:58:47;;;;;;;3.05;0.30;;;;;;;;;;5028952;28;20033;-5
2021/05/26 04:01:26;;;;;;;0.55;0.30;;;;;;;;;;5031889;28;20045;-5
2021/05/26 04:03:54;;;;;;;0.85;0.50;;;;;;;;;;5032219;28;20112;-4
2021/05/26 04:06:20;;;;;;;0.10;0.10;;;;;;;;;;5033432;28;20082;-6
2021/05/26 04:08:46;;;;;;;1.02;0.25;;;;;;;;;;5031753;28;20476;-5
2021/05/26 04:11:12;;;;;;;1.55;0.30;;;;;;;;;;5031047;28;20021;-5
2021/05/26 04:13:55;;;;;;;0.30;0.30;;;;;;;;;;5033391;28;20058;-6
2021/05/26 04:16:39;;;;;;;0.20;0.20;;;;;;;;;;5033007;28;20164;-5
2021/05/26 04:19:23;;;;;;;;;;;;;;;;;;5032116;28;20397;-5
2021/05/26 04:21:51;;;;;;;0.10;0.10;;;;;;;;;;5031502;28;19913;-4
2021/05/26 04:24:16;;;;;;;0.35;0.22;;;;;;;;;;5033074;28;20380;-5
2021/05/26 04:26:41;;;;;;;0.52;0.22;;;;;;;;;;5032771;28;20499;-5
2021/05/26 04:29:08;;;;;;;0.30;0.30;;;;;;;;;;5032661;28;20029;-4
2021/05/26 04:31:37;;;;;;;0.60;0.20;;;;;;;;;;5031444;28;20484;-5
2021/05/26 04:34:03;;;;;;;0.47;0.32;;;;;;;;;;5031292;28;20024;-4
2021/05/26 04:36:28;;;;;;;0.52;0.32;;;;;;;;;;5032604;28;20030;-5
2021/05/26 04:38:53;;;;;;;0.40;0.40;;;;;;;;;;5032517;28;20084;-5
2021/05/26 04:41:19;;;;;;;0.73;0.30;;;;;;;;;;5032878;28;20061;-5
2021/05/26 04:43:44;;;;;;;0.20;0.20;;;;;;;;;;5032539;28;20476;-4
2021/05/26 04:46:09;;;;;;;1.85;0.20;;;;;;;;;;5032418;28;20029;-4
2021/05/26 04:48:35;;;;;;;0.20;0.20;;;;;;;;;;5032837;28;20064;-5
2021/05/26 04:51:00;;;;;;;0.30;0.30;;;;;;;;;;5032583;28;20388;-5
2021/05/26 04:53:25;;;;;;;0.43;0.30;;;;;;;;;;5032807;28;20393;-5
2021/05/26 04:55:51;;;;;;;0.38;0.30;;;;;;;;;;5031066;28;20065;-7
2021/05/26 04:58:16;;;;;;;0.82;0.40;;;;;;;;;;5030893;28;20029;-5
2021/05/26 05:00:42;;;;;;;0.43;0.43;;;;;;;;;;5032316;28;20045;-4
2021/05/26 05:03:07;;;;;;;0.52;0.40;;;;;;;;;;5031047;28;20033;-5
2021/05/26 05:05:33;;;;;;;0.40;0.30;;;;;;;;;;5032294;28;20033;-5
2021/05/26 05:07:59;;;;;;;0.22;0.20;;;;;;;;;;5032132;28;20022;-5
2021/05/26 05:10:24;;;;;;;0.30;0.20;;;;;;;;;;5032268;28;20068;-5
2021/05/26 05:12:50;;;;;;;2.63;0.25;;;;;;;;;;5032507;28;20091;-7
2021/05/26 05:15:15;;;;;;;0.35;0.20;;;;;;;;;;5032213;28;20080;-5
2021/05/26 05:17:40;;;;;;;0.10;0.10;;;;;;;;;;5032180;28;20018;-5
2021/05/26 05:20:06;;;;;;;0.65;0.30;;;;;;;;;;5032020;28;20041;-6
2021/05/26 05:22:31;;;;;;;1.42;0.22;;;;;;;;;;5032884;28;20018;-5
2021/05/26 05:24:57;;;;;;;0.30;0.20;;;;;;;;;;5036147;28;20554;-5
2021/05/26 05:27:22;;;;;;;2.67;0.30;;;;;;;;;;5034741;28;20526;-5
2021/05/26 05:29:48;;;;;;;0.47;0.40;;;;;;;;;;5036124;28;20032;-4
2021/05/26 05:32:13;;;;;;;0.20;0.20;;;;;;;;;;5036316;28;20567;-5
2021/05/26 05:34:38;;;;;;;1.55;0.40;;;;;;;;;;5034688;28;20507;-3
2021/05/26 05:37:04;;;;;;;0.38;0.28;;;;;;;;;;5036102;28;20388;-5
2021/05/26 05:39:29;;;;;;;0.80;0.30;;;;;;;;;;5036070;28;20361;-10
2021/05/26 05:41:55;;;;;;;0.80;0.50;;;;;;;;;;5035709;28;20393;-5
2021/05/26 05:44:21;;;;;;;0.20;0.20;;;;;;;;;;5035643;28;20022;-5
2021/05/26 05:46:47;;;;;;;0.52;0.30;;;;;;;;;;5035655;28;20025;-5
2021/05/26 05:49:12;;;;;;;2.83;0.50;;;;;;;;;;5035721;28;20064;-6
2021/05/26 05:51:38;;;;;;;0.63;0.30;;;;;;;;;;5036013;28;20021;-4
2021/05/26 05:54:03;;;;;;;0.28;0.28;;;;;;;;;;5035791;28;20394;-4
2021/05/26 05:56:29;;;;;;;0.30;0.30;;;;;;;;;;5035489;28;20046;-8
2021/05/26 05:58:54;;;;;;;0.40;0.32;;;;;;;;;;5035420;28;20503;-6
2021/05/26 06:01:20;;;;;;;0.65;0.45;;;;;;;;;;5035703;28;20029;-5
2021/05/26 06:03:45;;;;;;;0.70;0.47;;;;;;;;;;5035534;28;20434;-6
2021/05/26 06:06:12;;;;;;;0.22;0.22;;;;;;;;;;5035737;28;20045;-7
2021/05/26 06:08:38;;;;;;;0.40;0.40;;;;;;;;;;5035605;28;20475;-5
2021/05/26 06:11:04;;;;;;;0.38;0.38;;;;;;;;;;5035219;28;20030;-5
2021/05/26 06:13:29;;;;;;;0.10;0.10;;;;;;;;;;5035311;28;20034;-5
2021/05/26 06:15:55;;;;;;;0.40;0.30;;;;;;;;;;5035183;28;20384;-6
2021/05/26 06:18:21;;;;;;;0.30;0.30;;;;;;;;;;5033896;28;20025;-6
2021/05/26 06:20:47;;;;;;;0.52;0.20;;;;;;;;;;5035061;28;20036;-6
2021/05/26 06:23:12;;;;;;;0.20;0.20;;;;;;;;;;5034920;28;20393;-6
2021/05/26 06:25:38;;;;;;;0.30;0.30;;;;;;;;;;5033808;28;20025;-6
2021/05/26 06:28:04;;;;;;;1.60;0.40;;;;;;;;;;5034952;28;20423;-5
2021/05/26 06:30:30;;;;;;;1.30;0.30;;;;;;;;;;5035012;28;20018;-6
2021/05/26 06:32:55;;;;;;;2.17;0.73;;;;;;;;;;5035161;28;20052;-6
2021/05/26 06:35:21;;;;;;;0.73;0.50;;;;;;;;;;5034036;28;20017;-4
2021/05/26 06:37:46;;;;;;;0.20;0.20;;;;;;;;;;5034785;28;20029;-13
2021/05/26 06:40:12;;;;;;;0.32;0.32;;;;;;;;;;5034715;28;20025;-6
2021/05/26 06:42:37;;;;;;;2.15;0.40;;;;;;;;;;5034829;28;20034;-7
2021/05/26 06:45:04;;;;;;;0.38;0.38;;;;;;;;;;5034674;28;20067;-6
2021/05/26 06:47:29;;;;;;;0.20;0.20;;;;;;;;;;5034591;28;20036;-6
2021/05/26 06:49:55;;;;;;;7.20;0.30;;;;;;;;;;5034587;28;20017;-6
2021/05/26 06:52:20;;;;;;;0.40;0.40;;;;;;;;;;5034317;28;20483;-5
2021/05/26 06:54:46;;;;;;;0.77;0.77;;;;;;;;;;5033820;28;20033;-6
2021/05/26 06:57:12;;;;;;;0.32;0.30;;;;;;;;;;5034698;28;20418;-6
2021/05/26 06:59:37;;;;;;;0.52;0.10;;;;;;;;;;5034334;28;20028;-6
2021/05/26 07:02:02;;;;;;;0.32;0.30;;;;;;;;;;5034336;28;20045;-5
2021/05/26 07:04:27;;;;;;;0.95;0.40;;;;;;;;;;5034623;28;20024;-6
2021/05/26 07:06:54;;;;;;;0.60;0.20;;;;;;;;;;5034536;28;20439;-6
2021/05/26 07:09:20;;;;;;;0.30;0.10;;;;;;;;;;5032961;28;20013;-6
2021/05/26 07:11:45;;;;;;;0.30;0.30;;;;;;;;;;5034262;28;20075;-5
2021/05/26 07:14:11;;;;;;;3.33;0.35;;;;;;;;;;5034054;28;20547;-6
2021/05/26 07:16:36;;;;;;;0.65;0.40;;;;;;;;;;5034043;28;20120;-5
2021/05/26 07:19:02;;;;;;;0.20;0.20;;;;;;;;;;5033879;28;20112;-5
2021/05/26 07:21:27;;;;;;;2.72;0.38;;;;;;;;;;5034109;28;20132;-7
2021/05/26 07:23:55;;;;;;;0.30;0.30;;;;;;;;;;5033475;28;20026;-6
2021/05/26 07:26:21;;;;;;;0.52;0.30;;;;;;;;;;5034191;28;20052;-6
2021/05/26 07:28:47;;;;;;;2.38;0.30;;;;;;;;;;5033836;28;20013;-7
2021/05/26 07:31:13;;;;;;;0.88;0.30;;;;;;;;;;5033789;28;20029;-5
2021/05/26 07:33:38;;;;;;;0.22;0.20;;;;;;;;;;5034057;28;20105;-6
2021/05/26 07:36:04;;;;;;;0.10;0.10;;;;;;;;;;5033580;28;20392;-6
2021/05/26 07:38:29;;;;;;;0.98;0.20;;;;;;;;;;5033686;28;20068;-5
2021/05/26 07:40:55;;;;;;;0.40;0.30;;;;;;;;;;5033755;28;20037;-8
2021/05/26 07:43:20;;;;;;;0.55;0.40;;;;;;;;;;5033468;28;20494;-7
2021/05/26 07:45:46;;;;;;;0.73;0.52;;;;;;;;;;5032999;28;20033;-7
2021/05/26 07:52:06;;;;;;;0.80;0.60;;;;;;;;;;5087665;27;20390;-6
2021/05/26 07:54:31;;;;;;;0.82;0.50;;;;;;;;;;5090291;28;20024;-6
2021/05/26 07:56:58;;;;;;;1.55;0.80;;;;;;;;;;5088326;28;20111;-5
2021/05/26 07:59:24;;;;;;;0.82;0.60;;;;;;;;;;5089909;28;20029;-5
2021/05/26 08:01:49;;;;;;;0.60;0.32;;;;;;;;;;5089785;28;20016;-6
2021/05/26 08:04:15;;;;;;;0.82;0.52;;;;;;;;;;5089760;28;20128;-6
2021/05/26 08:06:40;;;;;;;0.55;0.47;;;;;;;;;;5089992;28;20344;-6
2021/05/26 08:09:05;;;;;;;0.50;0.40;;;;;;;;;;5089557;28;20547;-5
2021/05/26 08:11:31;;;;;;;0.38;0.32;;;;;;;;;;5089905;28;20077;-5
2021/05/26 08:13:57;;;;;;;0.60;0.52;;;;;;;;;;5089642;28;20031;-5
2021/05/26 08:16:23;;;;;;;0.73;0.40;;;;;;;;;;5088562;28;20052;-5
2021/05/26 08:18:48;;;;;;;0.40;0.30;;;;;;;;;;5089571;28;20036;-5
2021/05/26 08:21:15;;;;;;;0.20;0.20;;;;;;;;;;5089718;28;20985;-6
2021/05/26 08:23:41;;;;;;;0.20;0.20;;;;;;;;;;5089477;28;20036;-5
2021/05/26 08:26:11;;;;;;;0.28;0.22;;;;;;;;;;5089473;28;20024;-5
2021/05/26 08:28:36;;;;;;;1.17;0.40;;;;;;;;;;5089331;28;20395;-5
2021/05/26 08:31:02;;;;;;;0.68;0.28;;;;;;;;;;5089430;28;20028;-5
2021/05/26 08:33:27;;;;;;;0.63;0.20;;;;;;;;;;5089518;28;20029;-6
2021/05/26 08:35:52;;;;;;;0.50;0.30;;;;;;;;;;5089497;28;20034;-6
2021/05/26 08:38:18;;;;;;;0.60;0.35;;;;;;;;;;5089288;28;20028;-4
2021/05/26 08:40:43;;;;;;;2.90;0.40;;;;;;;;;;5089425;28;20103;-5
2021/05/26 08:43:09;;;;;;;0.68;0.57;;;;;;;;;;5089067;28;20036;-4
2021/05/26 08:45:34;;;;;;;0.63;0.40;;;;;;;;;;5088989;28;20478;-5
2021/05/26 08:48:04;;;;;;;1.60;0.47;;;;;;;;;;5089148;28;20036;-5
2021/05/26 08:50:29;;;;;;;0.40;0.30;;;;;;;;;;5088899;28;20041;-5
2021/05/26 08:52:55;;;;;;;1.00;0.30;;;;;;;;;;5089145;28;20052;-4
2021/05/26 08:55:20;;;;;;;0.30;0.30;;;;;;;;;;5089084;28;20032;-5
2021/05/26 08:57:46;;;;;;;0.82;0.38;;;;;;;;;;5089006;28;20036;-6
2021/05/26 09:00:12;;;;;;;1.13;0.50;;;;;;;;;;5089209;28;20401;-4
2021/05/26 09:02:37;;;;;;;1.50;0.38;;;;;;;;;;5079802;28;20040;-4
2021/05/26 09:05:03;;;;;;;0.45;0.30;;;;;;;;;;5075381;28;20027;-6
2021/05/26 09:07:32;;;;;;;2.72;0.63;;;;;;;;;;5075339;28;20036;-4
2021/05/26 09:09:58;;;;;;;0.47;0.47;;;;;;;;;;5075193;28;20577;-6
2021/05/26 09:12:26;;;;;;;0.32;0.32;;;;;;;;;;5075386;28;20036;-6
2021/05/26 09:14:52;;;;;;;0.88;0.40;;;;;;;;;;5074072;28;20013;-4
2021/05/26 09:17:17;;;;;;;0.30;0.30;;;;;;;;;;5075081;28;20036;-4
2021/05/26 09:19:43;;;;;;;0.38;0.38;;;;;;;;;;5075190;28;20036;-5
2021/05/26 09:22:09;;;;;;;0.75;0.40;;;;;;;;;;5074949;28;20044;-5
2021/05/26 09:24:35;;;;;;;0.52;0.30;;;;;;;;;;5075139;28;20031;-4
2021/05/26 09:27:01;;;;;;;0.40;0.30;;;;;;;;;;5075019;28;20426;-5
2021/05/26 09:29:28;;;;;;;0.50;0.40;;;;;;;;;;5074980;28;20442;-4
2021/05/26 09:32:13;;;;;;;0.20;0.20;;;;;;;;;;5074925;28;20135;-4
2021/05/26 09:34:40;;;;;;;1.00;0.40;;;;;;;;;;5063773;28;20430;-5
2021/05/26 09:37:05;;;;;;;1.02;0.40;;;;;;;;;;5074750;28;20112;-5
2021/05/26 09:39:46;;;;;;;0.50;0.40;;;;;;;;;;5074840;28;20064;-4
2021/05/26 09:42:20;;;;;;;0.80;0.52;;;;;;;;;;5074689;28;20036;-5
2021/05/26 09:45:25;;;;;;;1.48;0.50;;;;;;;;;;5074745;28;20028;-4
2021/05/26 09:47:51;;;;;;;0.98;0.55;;;;;;;;;;5012257;28;20037;-5
2021/05/26 09:50:23;;;;;;;3.55;0.50;;;;;;;;;;5058349;28;20059;-4
2021/05/26 09:52:52;;;;;;;0.22;0.22;;;;;;;;;;5074637;28;20040;-5
2021/05/26 09:55:20;;;;;;;0.47;0.40;;;;;;;;;;5074447;28;20036;-5
2021/05/26 09:57:50;;;;;;;1.27;0.40;;;;;;;;;;5074438;28;20098;-4
2021/05/26 10:00:16;;;;;;;0.40;0.40;;;;;;;;;;5074399;28;20103;-4
2021/05/26 10:02:41;;;;;;;4.43;1.02;;;;;;;;;;5074437;28;20051;-6
2021/05/26 10:05:08;;;;;;;0.90;0.45;;;;;;;;;;5074165;28;20017;-5
2021/05/26 10:07:56;;;;;;;0.80;0.40;;;;;;;;;;5073941;28;20106;-5
2021/05/26 10:10:23;;;;;;;3.40;0.75;;;;;;;;;;5072549;28;20033;-5
2021/05/26 10:13:06;;;;;;;0.40;0.40;;;;;;;;;;5072094;28;20021;-5
2021/05/26 10:15:34;;;;;;;0.20;0.20;;;;;;;;;;5072079;28;20045;-6
2021/05/26 10:18:00;;;;;;;0.82;0.63;;;;;;;;;;5074128;28;20017;-5
2021/05/26 10:20:30;;;;;;;1.38;0.55;;;;;;;;;;5073989;28;20418;-5
2021/05/26 10:23:01;;;;;;;1.58;1.48;;;;;;;;;;5073663;28;20028;-5
2021/05/26 10:25:26;;;;;;;0.88;0.60;;;;;;;;;;5073615;28;20071;-5
2021/05/26 10:27:52;;;;;;;2.30;0.60;;;;;;;;;;5073474;28;20444;-5
2021/05/26 10:30:19;;;;;;;0.75;0.32;;;;;;;;;;5073631;28;20048;-5
2021/05/26 10:32:54;;;;;;;0.70;0.35;;;;;;;;;;5073372;28;20028;-5
2021/05/26 10:35:21;;;;;;;7.63;1.00;;;;;;;;;;5073632;28;20036;-4
2021/05/26 10:37:54;;;;;;;0.88;0.63;;;;;;;;;;5073380;28;20463;-6
2021/05/26 10:40:22;;;;;;;0.43;0.40;;;;;;;;;;5073288;28;20475;-3
2021/05/26 10:42:48;;;;;;;0.30;0.30;;;;;;;;;;5073518;28;20486;-4
2021/05/26 10:45:16;;;;;;;0.80;0.55;;;;;;;;;;5073200;28;20117;-5
2021/05/26 10:47:43;;;;;;;11.32;0.70;;;;;;;;;;5073088;28;20013;-4
2021/05/26 10:50:14;;;;;;;1.05;0.65;;;;;;;;;;5073040;28;20484;-4
2021/05/26 10:52:55;;;;;;;1.33;0.50;;;;;;;;;;5072886;28;20029;-4
2021/05/26 10:55:27;;;;;;;1.73;0.40;;;;;;;;;;5072967;28;20028;-5
2021/05/26 10:58:11;;;;;;;0.20;0.20;;;;;;;;;;5072952;28;20028;-4
2021/05/26 11:00:37;;;;;;;2.10;0.50;;;;;;;;;;5072856;28;20029;-5
2021/05/26 11:03:21;;;;;;;1.13;0.68;;;;;;;;;;5073059;28;20017;-7
2021/05/26 11:05:46;;;;;;;0.40;0.40;;;;;;;;;;5072920;28;20024;-5
2021/05/26 11:08:31;;;;;;;0.47;0.43;;;;;;;;;;5072571;28;20051;-4
2021/05/26 11:10:56;;;;;;;0.90;0.80;;;;;;;;;;5071719;28;20040;-4
2021/05/26 11:13:21;;;;;;;0.45;0.45;;;;;;;;;;5072696;28;20017;-5
2021/05/26 11:15:48;;;;;;;2.25;0.70;;;;;;;;;;5072704;28;20036;-5
2021/05/26 11:20:43;;;;;;;1.35;0.60;;;;;;;;;;5072676;28;20029;-5
2021/05/26 11:23:12;;;;;;;1.15;0.65;;;;;;;;;;5072740;28;20103;-5
2021/05/26 11:25:38;;;;;;;2.72;0.70;;;;;;;;;;5072687;28;20115;-5
2021/05/26 11:28:03;;;;;;;2.72;0.43;;;;;;;;;;5071166;28;20486;-5
2021/05/26 11:30:28;;;;;;;0.65;0.65;;;;;;;;;;5072707;28;20412;-5
2021/05/26 11:32:54;;;;;;;0.80;0.80;;;;;;;;;;5072430;28;20021;-6
2021/05/26 11:35:20;;;;;;;1.38;0.50;;;;;;;;;;5072388;28;20070;-5
2021/05/26 11:37:45;;;;;;;1.83;0.80;;;;;;;;;;5072701;28;20066;-5
2021/05/26 11:40:19;;;;;;;1.77;0.57;;;;;;;;;;5072444;28;20386;-5
2021/05/26 11:42:44;;;;;;;;;;;;;;;;;;5072796;28;20024;-6
2021/05/26 11:45:11;;;;;;;0.70;0.63;;;;;;;;;;5072286;28;19904;-5
2021/05/26 11:47:42;;;;;;;3.95;0.82;;;;;;;;;;5070984;28;20036;-4
2021/05/26 11:50:17;;;;;;;1.58;0.60;;;;;;;;;;5072098;28;20064;-5
2021/05/26 11:52:44;;;;;;;1.38;0.85;;;;;;;;;;5072348;28;20471;-5
2021/05/26 11:55:09;;;;;;;0.85;0.68;;;;;;;;;;5072204;28;20033;-6
2021/05/26 11:57:42;;;;;;;0.70;0.43;;;;;;;;;;5072441;28;20036;-4
2021/05/26 12:00:08;;;;;;;1.20;0.80;;;;;;;;;;5072176;28;20068;-5
2021/05/26 12:02:59;;;;;;;2.38;1.10;;;;;;;;;;5072482;28;20021;-5
2021/05/26 12:05:45;;;;;;;0.93;0.82;;;;;;;;;;5070908;28;20021;-6
2021/05/26 12:08:20;;;;;;;1.88;0.60;;;;;;;;;;5071897;28;20021;-6
2021/05/26 12:10:58;;;;;;;1.55;1.02;;;;;;;;;;5072086;28;20483;-5
2021/05/26 12:13:25;;;;;;;2.38;1.15;;;;;;;;;;5072125;28;20029;-6
2021/05/26 12:15:50;;;;;;;1.52;1.25;;;;;;;;;;5070842;28;20111;-4
2021/05/26 12:18:16;;;;;;;1.65;1.15;;;;;;;;;;5072119;28;20067;-6
2021/05/26 12:20:46;;;;;;;0.70;0.70;;;;;;;;;;5072051;28;20021;-5
2021/05/26 12:23:11;;;;;;;0.55;0.50;;;;;;;;;;5071949;28;20387;-5
2021/05/26 12:25:38;;;;;;;1.17;1.08;;;;;;;;;;5070729;28;20015;-7
2021/05/26 12:28:14;;;;;;;0.95;0.65;;;;;;;;;;5072161;28;20038;-6
2021/05/26 12:30:39;;;;;;;2.70;0.98;;;;;;;;;;5071910;28;20040;-5
2021/05/26 12:33:31;;;;;;;3.38;1.08;;;;;;;;;;5070477;28;20019;-5
2021/05/26 12:36:04;;;;;;;3.40;1.05;;;;;;;;;;5068727;28;20441;-5
2021/05/26 12:38:33;;;;;;;2.45;0.70;;;;;;;;;;5075064;28;20041;-6
2021/05/26 12:41:17;;;;;;;1.55;0.93;;;;;;;;;;5075466;28;20028;-6
2021/05/26 12:43:42;;;;;;;0.60;0.60;;;;;;;;;;5075828;28;20435;-6
2021/05/26 12:46:08;;;;;;;3.40;0.90;;;;;;;;;;5075333;28;20017;-6
2021/05/26 12:48:33;;;;;;;3.05;1.20;;;;;;;;;;5075620;28;20032;-6
2021/05/26 12:51:01;;;;;;;2.15;0.68;;;;;;;;;;5075205;28;20399;-6
2021/05/26 12:53:31;;;;;;;1.30;0.80;;;;;;;;;;5075465;28;20024;-5
2021/05/26 12:55:57;;;;;;;2.20;0.90;;;;;;;;;;5075455;28;20142;-6
2021/05/26 12:58:23;;;;;;;2.78;0.90;;;;;;;;;;5075629;28;20040;-6
2021/05/26 13:00:48;;;;;;;1.15;1.05;;;;;;;;;;5075520;28;20401;-6
2021/05/26 13:03:23;;;;;;;1.52;0.68;;;;;;;;;;5075412;28;20499;-5
2021/05/26 13:05:50;;;;;;;1.70;0.90;;;;;;;;;;5075042;28;20028;-6
2021/05/26 13:08:24;;;;;;;1.85;1.08;;;;;;;;;;5074944;28;20495;-6
2021/05/26 13:10:50;;;;;;;1.05;0.70;;;;;;;;;;5075093;28;20044;-6
2021/05/26 13:13:15;;;;;;;1.42;0.95;;;;;;;;;;5074953;28;20028;-5
2021/05/26 13:16:11;;;;;;;1.02;0.60;;;;;;;;;;5073583;28;20032;-6
2021/05/26 13:18:37;;;;;;;0.90;0.77;;;;;;;;;;5034141;28;20041;-5
2021/05/26 13:21:03;;;;;;;1.05;0.88;;;;;;;;;;5034951;28;20108;-6
2021/05/26 13:23:29;;;;;;;1.00;0.60;;;;;;;;;;5034878;28;20539;-6
2021/05/26 13:25:57;;;;;;;0.60;0.60;;;;;;;;;;5035114;28;20017;-6
2021/05/26 13:28:24;;;;;;;1.35;0.98;;;;;;;;;;5049811;28;20059;-6
2021/05/26 13:30:50;;;;;;;0.22;0.22;;;;;;;;;;5034651;28;20021;-6
2021/05/26 13:33:16;;;;;;;1.13;0.73;;;;;;;;;;5034705;28;20120;-5
2021/05/26 13:35:42;;;;;;;1.00;0.88;;;;;;;;;;5034769;28;20633;-6
2021/05/26 13:38:08;;;;;;;3.75;1.10;;;;;;;;;;5034532;28;20321;-6
2021/05/26 13:40:35;;;;;;;4.60;1.35;;;;;;;;;;5034609;28;20029;-5
2021/05/26 13:43:01;;;;;;;2.53;1.02;;;;;;;;;;5034499;28;20092;-7
2021/05/26 13:45:27;;;;;;;5.88;1.08;;;;;;;;;;5034705;28;20144;-5
2021/05/26 13:47:52;;;;;;;1.33;0.80;;;;;;;;;;5034587;28;20109;-6
2021/05/26 13:50:18;;;;;;;1.00;1.00;;;;;;;;;;5034287;28;20050;-5
2021/05/26 13:52:45;;;;;;;2.08;0.75;;;;;;;;;;5034641;28;20380;-6
2021/05/26 13:55:11;;;;;;;1.88;1.33;;;;;;;;;;5034338;28;20034;-7
2021/05/26 13:57:36;;;;;;;1.13;1.02;;;;;;;;;;5034527;28;20373;-6
2021/05/26 14:00:04;;;;;;;1.25;0.50;;;;;;;;;;5034073;28;20064;-6
2021/05/26 14:02:37;;;;;;;1.45;1.10;;;;;;;;;;5034259;28;20041;-5
2021/05/26 14:05:03;;;;;;;2.70;1.17;;;;;;;;;;5033959;28;20036;-6
2021/05/26 14:07:28;;;;;;;0.55;0.43;;;;;;;;;;5034098;28;20029;-6
2021/05/26 14:09:54;;;;;;;2.17;1.10;;;;;;;;;;5033923;28;20025;-5
2021/05/26 14:12:20;;;;;;;1.55;1.20;;;;;;;;;;5033867;28;20124;-7
2021/05/26 14:14:45;;;;;;;3.85;0.90;;;;;;;;;;5034010;28;20112;-6
2021/05/26 14:17:10;;;;;;;0.70;0.70;;;;;;;;;;5032443;28;20366;-6
2021/05/26 14:19:36;;;;;;;1.42;1.15;;;;;;;;;;5033840;28;20033;-6
2021/05/26 14:22:02;;;;;;;0.45;0.45;;;;;;;;;;5033784;28;20022;-5
2021/05/26 14:24:27;;;;;;;1.25;0.70;;;;;;;;;;5033618;28;20033;-6
2021/05/26 14:26:53;;;;;;;1.27;0.88;;;;;;;;;;5033711;28;20024;-5
2021/05/26 14:29:18;;;;;;;1.90;0.98;;;;;;;;;;5033602;28;20040;-6
2021/05/26 14:34:32;;;;;;;21.95;1.73;;;;;;;;;;5318766;23;20049;-12
2021/05/26 14:36:58;;;;;;;5.05;0.95;;;;;;;;;;4974537;28;20118;-11
2021/05/26 14:39:29;;;;;;;3.28;1.33;;;;;;;;;;4974668;28;20166;-12
2021/05/26 14:41:54;;;;;;;2.05;1.33;;;;;;;;;;4974716;28;20425;-11
2021/05/26 14:44:20;;;;;;;1.45;1.33;;;;;;;;;;4974948;28;20034;-12
2021/05/26 14:46:45;;;;;;;1.88;1.33;;;;;;;;;;4974782;28;20401;-12
2021/05/26 14:49:11;;;;;;;2.17;1.50;;;;;;;;;;4974474;28;20376;-23
2021/05/26 14:51:36;;;;;;;1.40;1.20;;;;;;;;;;4974346;28;20046;-12
2021/05/26 14:54:02;;;;;;;9.60;1.10;;;;;;;;;;4974362;28;20025;-12
2021/05/26 14:56:28;;;;;;;2.22;1.00;;;;;;;;;;4974315;28;20130;-11
2021/05/26 14:58:53;;;;;;;0.80;0.80;;;;;;;;;;4974576;28;20030;-12
2021/05/26 15:01:20;;;;;;;1.73;1.38;;;;;;;;;;4972615;28;20055;-12
2021/05/26 15:03:45;;;;;;;5.47;1.15;;;;;;;;;;4974302;28;20062;-12
2021/05/26 15:06:11;;;;;;;3.40;0.82;;;;;;;;;;4974506;28;20408;-12
2021/05/26 15:08:36;;;;;;;3.13;1.27;;;;;;;;;;4974237;28;20516;-12